createdAt,value
2023-04-27T00:00:45.878Z,290.00
2023-04-27T00:01:46.026Z,290.00
2023-04-27T00:02:46.211Z,289.00
2023-04-27T00:03:46.112Z,290.00
2023-04-27T00:04:46.177Z,291.00
2023-04-27T00:05:46.244Z,292.00
2023-04-27T00:06:46.227Z,292.00
2023-04-27T00:07:46.198Z,292.00
2023-04-27T00:08:46.286Z,291.00
2023-04-27T00:09:46.281Z,290.00
2023-04-27T00:10:46.366Z,289.00
2023-04-27T00:11:46.406Z,289.00
2023-04-27T00:12:46.434Z,289.00
2023-04-27T00:13:46.466Z,289.00
2023-04-27T00:14:46.605Z,288.00
2023-04-27T00:15:46.582Z,289.00
2023-04-27T00:16:46.669Z,290.00
2023-04-27T00:17:46.749Z,289.00
2023-04-27T00:18:46.787Z,291.00
2023-04-27T00:19:46.801Z,292.00
2023-04-27T00:20:46.857Z,294.00
2023-04-27T00:21:46.904Z,293.00
2023-04-27T00:22:46.907Z,290.00
2023-04-27T00:23:46.997Z,291.00
2023-04-27T00:24:47.059Z,293.00
2023-04-27T00:25:47.118Z,292.00
2023-04-27T00:26:47.162Z,294.00
2023-04-27T00:27:47.194Z,293.00
2023-04-27T00:28:47.288Z,293.00
2023-04-27T00:29:47.314Z,293.00
2023-04-27T00:30:47.369Z,291.00
2023-04-27T00:31:47.447Z,288.00
2023-04-27T00:32:47.567Z,288.00
2023-04-27T00:33:47.578Z,289.00
2023-04-27T00:34:47.581Z,288.00
2023-04-27T00:35:47.648Z,288.00
2023-04-27T00:36:47.718Z,290.00
2023-04-27T00:37:47.758Z,290.00
2023-04-27T00:38:47.814Z,291.00
2023-04-27T00:39:47.884Z,290.00
2023-04-27T00:40:47.936Z,290.00
2023-04-27T00:41:47.998Z,290.00
2023-04-27T00:42:48.057Z,290.00
2023-04-27T00:43:48.072Z,288.00
2023-04-27T00:44:48.154Z,287.00
2023-04-27T00:45:48.175Z,287.00
2023-04-27T00:46:48.231Z,287.00
2023-04-27T00:47:48.346Z,287.00
2023-04-27T00:48:48.314Z,287.00
2023-04-27T00:49:48.369Z,289.00
2023-04-27T00:50:48.459Z,287.00
2023-04-27T00:51:48.480Z,288.00
2023-04-27T00:52:48.520Z,287.00
2023-04-27T00:53:48.557Z,286.00
2023-04-27T00:54:48.612Z,287.00
2023-04-27T00:55:48.710Z,289.00
2023-04-27T00:56:48.759Z,290.00
2023-04-27T00:57:48.763Z,289.00
2023-04-27T00:58:48.790Z,289.00
2023-04-27T00:59:48.871Z,288.00
2023-04-27T01:00:48.945Z,288.00
2023-04-27T01:01:49.104Z,289.00
2023-04-27T01:02:49.248Z,288.00
2023-04-27T01:03:49.162Z,289.00
2023-04-27T01:04:49.174Z,291.00
2023-04-27T01:05:49.176Z,292.00
2023-04-27T01:06:49.236Z,292.00
2023-04-27T01:07:49.306Z,292.00
2023-04-27T01:08:49.312Z,291.00
2023-04-27T01:09:49.400Z,288.00
2023-04-27T01:10:49.464Z,287.00
2023-04-27T01:11:49.607Z,286.00
2023-04-27T01:12:49.580Z,285.00
2023-04-27T01:13:49.651Z,286.00
2023-04-27T01:14:49.708Z,285.00
2023-04-27T01:15:49.731Z,287.00
2023-04-27T01:16:49.867Z,290.00
2023-04-27T01:17:49.955Z,289.00
2023-04-27T01:18:49.897Z,288.00
2023-04-27T01:19:49.984Z,285.00
2023-04-27T01:20:50.134Z,285.00
2023-04-27T01:21:50.083Z,287.00
2023-04-27T01:22:50.115Z,286.00
2023-04-27T01:23:50.196Z,287.00
2023-04-27T01:24:50.228Z,287.00
2023-04-27T01:25:50.335Z,290.00
2023-04-27T01:26:50.390Z,288.00
2023-04-27T01:27:50.388Z,287.00
2023-04-27T01:28:50.464Z,287.00
2023-04-27T01:29:50.566Z,287.00
2023-04-27T01:30:50.696Z,287.00
2023-04-27T01:31:50.625Z,290.00
2023-04-27T01:32:50.736Z,288.00
2023-04-27T01:33:50.742Z,289.00
2023-04-27T01:34:50.812Z,286.00
2023-04-27T01:35:50.892Z,285.00
2023-04-27T01:36:50.917Z,286.00
2023-04-27T01:37:50.976Z,286.00
2023-04-27T01:38:51.021Z,287.00
2023-04-27T01:39:51.042Z,288.00
2023-04-27T01:40:51.096Z,286.00
2023-04-27T01:41:51.165Z,286.00
2023-04-27T01:42:51.224Z,286.00
2023-04-27T01:43:51.280Z,285.00
2023-04-27T01:44:51.337Z,282.00
2023-04-27T01:45:51.467Z,284.00
2023-04-27T01:46:51.456Z,286.00
2023-04-27T01:47:51.530Z,287.00
2023-04-27T01:48:51.612Z,289.00
2023-04-27T01:49:51.608Z,289.00
2023-04-27T01:50:51.696Z,288.00
2023-04-27T01:51:51.755Z,286.00
2023-04-27T01:52:51.776Z,287.00
2023-04-27T01:53:51.828Z,288.00
2023-04-27T01:54:51.922Z,290.00
2023-04-27T01:55:52.028Z,290.00
2023-04-27T01:56:52.039Z,291.00
2023-04-27T01:57:52.089Z,290.00
2023-04-27T01:58:52.123Z,287.00
2023-04-27T01:59:52.209Z,286.00
2023-04-27T02:00:52.354Z,285.00
2023-04-27T02:01:52.362Z,285.00
2023-04-27T02:02:52.483Z,286.00
2023-04-27T02:03:52.521Z,286.00
2023-04-27T02:04:52.568Z,283.00
2023-04-27T02:05:52.556Z,279.00
2023-04-27T02:06:52.617Z,280.00
2023-04-27T02:07:52.670Z,279.00
2023-04-27T02:08:52.722Z,278.00
2023-04-27T02:09:52.758Z,281.00
2023-04-27T02:10:52.859Z,281.00
2023-04-27T02:11:52.877Z,279.00
2023-04-27T02:12:52.967Z,278.00
2023-04-27T02:13:53.007Z,280.00
2023-04-27T02:14:53.085Z,281.00
2023-04-27T02:15:53.111Z,281.00
2023-04-27T02:16:53.144Z,278.00
2023-04-27T02:17:53.293Z,277.00
2023-04-27T02:18:53.310Z,278.00
2023-04-27T02:19:53.307Z,278.00
2023-04-27T02:20:53.423Z,279.00
2023-04-27T02:21:53.488Z,279.00
2023-04-27T02:22:53.515Z,281.00
2023-04-27T02:23:53.535Z,280.00
2023-04-27T02:24:53.618Z,280.00
2023-04-27T02:25:53.692Z,279.00
2023-04-27T02:26:53.722Z,279.00
2023-04-27T02:27:53.749Z,278.00
2023-04-27T02:28:53.835Z,280.00
2023-04-27T02:29:53.835Z,280.00
2023-04-27T02:30:53.894Z,281.00
2023-04-27T02:31:54.033Z,280.00
2023-04-27T02:32:54.064Z,281.00
2023-04-27T02:33:54.072Z,282.00
2023-04-27T02:34:54.087Z,284.00
2023-04-27T02:35:54.208Z,283.00
2023-04-27T02:36:54.214Z,281.00
2023-04-27T02:37:54.253Z,280.00
2023-04-27T02:38:54.312Z,280.00
2023-04-27T02:39:54.422Z,280.00
2023-04-27T02:40:54.411Z,280.00
2023-04-27T02:41:54.486Z,279.00
2023-04-27T02:42:54.549Z,279.00
2023-04-27T02:43:54.600Z,278.00
2023-04-27T02:44:54.632Z,279.00
2023-04-27T02:45:54.686Z,278.00
2023-04-27T02:46:54.756Z,278.00
2023-04-27T02:47:54.850Z,279.00
2023-04-27T02:48:54.831Z,280.00
2023-04-27T02:49:54.913Z,281.00
2023-04-27T02:50:54.978Z,281.00
2023-04-27T02:51:55.025Z,282.00
2023-04-27T02:52:55.065Z,283.00
2023-04-27T02:53:55.122Z,284.00
2023-04-27T02:54:55.257Z,284.00
2023-04-27T02:55:55.234Z,285.00
2023-04-27T02:56:55.280Z,285.00
2023-04-27T02:57:55.420Z,285.00
2023-04-27T02:58:55.418Z,285.00
2023-04-27T02:59:55.480Z,287.00
2023-04-27T03:00:55.579Z,287.00
2023-04-27T03:01:55.592Z,286.00
2023-04-27T03:02:55.819Z,286.00
2023-04-27T03:03:55.832Z,286.00
2023-04-27T03:04:55.811Z,284.00
2023-04-27T03:05:55.891Z,283.00
2023-04-27T03:06:55.903Z,282.00
2023-04-27T03:07:56.000Z,283.00
2023-04-27T03:08:56.036Z,283.00
2023-04-27T03:09:56.077Z,284.00
2023-04-27T03:10:56.129Z,284.00
2023-04-27T03:11:56.194Z,284.00
2023-04-27T03:12:56.274Z,286.00
2023-04-27T03:13:56.330Z,287.00
2023-04-27T03:14:56.373Z,288.00
2023-04-27T03:15:56.526Z,286.00
2023-04-27T03:16:56.553Z,286.00
2023-04-27T03:17:56.604Z,284.00
2023-04-27T03:18:56.616Z,281.00
2023-04-27T03:19:56.681Z,282.00
2023-04-27T03:20:56.743Z,282.00
2023-04-27T03:21:56.795Z,282.00
2023-04-27T03:22:56.907Z,281.00
2023-04-27T03:23:56.908Z,279.00
2023-04-27T03:24:56.960Z,281.00
2023-04-27T03:25:57.082Z,281.00
2023-04-27T03:26:57.109Z,284.00
2023-04-27T03:27:57.152Z,285.00
2023-04-27T03:28:57.256Z,285.00
2023-04-27T03:29:57.332Z,287.00
2023-04-27T03:30:57.368Z,287.00
2023-04-27T03:31:57.448Z,289.00
2023-04-27T03:32:57.504Z,291.00
2023-04-27T03:33:57.652Z,292.00
2023-04-27T03:34:57.597Z,290.00
2023-04-27T03:35:57.685Z,291.00
2023-04-27T03:36:57.734Z,291.00
2023-04-27T03:37:57.820Z,291.00
2023-04-27T03:38:57.879Z,290.00
2023-04-27T03:39:57.893Z,289.00
2023-04-27T03:40:57.988Z,285.00
2023-04-27T03:41:58.049Z,285.00
2023-04-27T03:42:59.215Z,283.00
2023-04-27T03:43:58.180Z,283.00
2023-04-27T03:44:58.180Z,283.00
2023-04-27T03:45:58.301Z,284.00
2023-04-27T03:46:58.306Z,284.00
2023-04-27T03:47:58.358Z,281.00
2023-04-27T03:48:58.419Z,277.00
2023-04-27T03:49:58.487Z,280.00
2023-04-27T03:50:58.548Z,281.00
2023-04-27T03:51:58.583Z,282.00
2023-04-27T03:52:58.681Z,283.00
2023-04-27T03:53:58.684Z,281.00
2023-04-27T03:54:58.763Z,280.00
2023-04-27T03:55:58.922Z,281.00
2023-04-27T03:56:58.881Z,283.00
2023-04-27T03:57:58.940Z,284.00
2023-04-27T03:58:58.964Z,284.00
2023-04-27T03:59:59.049Z,284.00
2023-04-27T04:00:59.086Z,284.00
2023-04-27T04:02:00.881Z,283.00
2023-04-27T04:02:59.416Z,282.00
2023-04-27T04:03:59.395Z,282.00
2023-04-27T04:04:59.357Z,279.00
2023-04-27T04:05:59.321Z,279.00
2023-04-27T04:06:59.400Z,278.00
2023-04-27T04:07:59.449Z,280.00
2023-04-27T04:08:59.451Z,282.00
2023-04-27T04:09:59.514Z,285.00
2023-04-27T04:10:59.542Z,286.00
2023-04-27T04:11:59.608Z,285.00
2023-04-27T04:12:59.622Z,285.00
2023-04-27T04:13:59.650Z,286.00
2023-04-27T04:14:59.672Z,285.00
2023-04-27T04:15:59.784Z,287.00
2023-04-27T04:16:59.883Z,287.00
2023-04-27T04:17:59.811Z,289.00
2023-04-27T04:18:59.856Z,291.00
2023-04-27T04:19:59.888Z,294.00
2023-04-27T04:20:59.916Z,295.00
2023-04-27T04:21:59.966Z,296.00
2023-04-27T04:23:00.020Z,294.00
2023-04-27T04:24:00.121Z,295.00
2023-04-27T04:25:00.125Z,297.00
2023-04-27T04:26:00.181Z,298.00
2023-04-27T04:27:00.151Z,299.00
2023-04-27T04:28:00.293Z,299.00
2023-04-27T04:29:00.275Z,300.00
2023-04-27T04:30:00.333Z,301.00
2023-04-27T04:31:00.380Z,302.00
2023-04-27T04:32:00.310Z,303.00
2023-04-27T04:33:00.447Z,305.00
2023-04-27T04:34:00.405Z,305.00
2023-04-27T04:35:00.404Z,304.00
2023-04-27T04:36:00.429Z,304.00
2023-04-27T04:37:00.433Z,306.00
2023-04-27T04:38:00.484Z,306.00
2023-04-27T04:39:00.519Z,309.00
2023-04-27T04:40:00.538Z,308.00
2023-04-27T04:41:00.593Z,308.00
2023-04-27T04:42:00.575Z,307.00
2023-04-27T04:43:00.669Z,306.00
2023-04-27T04:44:00.686Z,304.00
2023-04-27T04:45:00.683Z,306.00
2023-04-27T04:46:00.739Z,306.00
2023-04-27T04:47:00.782Z,307.00
2023-04-27T04:48:00.825Z,308.00
2023-04-27T04:49:00.809Z,308.00
2023-04-27T04:50:00.869Z,306.00
2023-04-27T04:51:00.896Z,306.00
2023-04-27T04:52:00.935Z,308.00
2023-04-27T04:53:00.997Z,307.00
2023-04-27T04:54:01.786Z,306.00
2023-04-27T04:55:01.067Z,305.00
2023-04-27T04:56:01.100Z,303.00
2023-04-27T04:57:01.169Z,305.00
2023-04-27T04:58:01.228Z,306.00
2023-04-27T04:59:01.241Z,309.00
2023-04-27T05:00:01.284Z,309.00
2023-04-27T05:01:01.300Z,311.00
2023-04-27T05:02:01.518Z,312.00
2023-04-27T05:03:01.598Z,311.00
2023-04-27T05:04:01.708Z,310.00
2023-04-27T05:05:01.527Z,309.00
2023-04-27T05:06:01.531Z,307.00
2023-04-27T05:07:01.606Z,307.00
2023-04-27T05:08:01.657Z,306.00
2023-04-27T05:09:01.714Z,305.00
2023-04-27T05:10:01.735Z,304.00
2023-04-27T05:11:01.787Z,307.00
2023-04-27T05:12:01.872Z,306.00
2023-04-27T05:13:01.917Z,306.00
2023-04-27T05:14:01.904Z,306.00
2023-04-27T05:15:01.977Z,306.00
2023-04-27T05:16:02.062Z,305.00
2023-04-27T05:17:02.068Z,305.00
2023-04-27T05:18:02.195Z,307.00
2023-04-27T05:19:02.188Z,304.00
2023-04-27T05:20:02.267Z,304.00
2023-04-27T05:21:02.318Z,305.00
2023-04-27T05:22:02.364Z,304.00
2023-04-27T05:23:02.402Z,304.00
2023-04-27T05:24:02.430Z,304.00
2023-04-27T05:25:02.512Z,306.00
2023-04-27T05:26:02.531Z,304.00
2023-04-27T05:27:02.637Z,305.00
2023-04-27T05:28:02.598Z,304.00
2023-04-27T05:29:02.676Z,304.00
2023-04-27T05:30:02.742Z,303.00
2023-04-27T05:31:02.738Z,303.00
2023-04-27T05:32:02.853Z,304.00
2023-04-27T05:33:02.934Z,302.00
2023-04-27T05:34:02.877Z,314.00
2023-04-27T05:35:02.939Z,339.00
2023-04-27T05:36:02.946Z,343.00
2023-04-27T05:37:02.996Z,334.00
2023-04-27T05:38:03.088Z,341.00
2023-04-27T05:39:03.084Z,349.00
2023-04-27T05:40:03.147Z,349.00
2023-04-27T05:41:03.218Z,357.00
2023-04-27T05:42:03.219Z,406.00
2023-04-27T05:43:03.296Z,419.00
2023-04-27T05:44:03.310Z,423.00
2023-04-27T05:45:03.376Z,429.00
2023-04-27T05:46:03.502Z,449.00
2023-04-27T05:47:03.466Z,472.00
2023-04-27T05:48:03.544Z,482.00
2023-04-27T05:49:03.571Z,517.00
2023-04-27T05:50:03.646Z,532.00
2023-04-27T05:51:03.694Z,545.00
2023-04-27T05:52:03.720Z,558.00
2023-04-27T05:53:03.856Z,567.00
2023-04-27T05:54:03.866Z,578.00
2023-04-27T05:55:03.932Z,589.00
2023-04-27T05:56:03.965Z,618.00
2023-04-27T05:57:04.043Z,629.00
2023-04-27T05:58:07.517Z,640.00
2023-04-27T05:59:04.062Z,648.00
2023-04-27T06:00:04.050Z,661.00
2023-04-27T06:01:04.060Z,673.00
2023-04-27T06:02:04.100Z,685.00
2023-04-27T06:03:04.213Z,691.00
2023-04-27T06:04:04.213Z,698.00
2023-04-27T06:05:04.068Z,703.00
2023-04-27T06:06:04.016Z,708.00
2023-04-27T06:07:04.019Z,715.00
2023-04-27T06:08:04.063Z,722.00
2023-04-27T06:09:04.008Z,728.00
2023-04-27T06:10:03.998Z,738.00
2023-04-27T06:11:03.981Z,745.00
2023-04-27T06:12:03.996Z,752.00
2023-04-27T06:13:04.033Z,757.00
2023-04-27T06:14:03.995Z,764.00
2023-04-27T06:15:03.968Z,771.00
2023-04-27T06:16:03.977Z,778.00
2023-04-27T06:17:03.913Z,782.00
2023-04-27T06:18:04.042Z,788.00
2023-04-27T06:19:03.978Z,792.00
2023-04-27T06:20:03.994Z,795.00
2023-04-27T06:21:04.063Z,801.00
2023-04-27T06:22:04.010Z,812.00
2023-04-27T06:23:04.010Z,819.00
2023-04-27T06:24:04.011Z,828.00
2023-04-27T06:25:03.980Z,831.00
2023-04-27T06:26:04.037Z,841.00
2023-04-27T06:27:04.044Z,846.00
2023-04-27T06:28:04.029Z,843.00
2023-04-27T06:29:04.036Z,842.00
2023-04-27T06:30:04.011Z,842.00
2023-04-27T06:31:04.017Z,841.00
2023-04-27T06:32:04.092Z,847.00
2023-04-27T06:33:04.041Z,855.00
2023-04-27T06:34:04.008Z,865.00
2023-04-27T06:35:04.027Z,873.00
2023-04-27T06:36:04.067Z,876.00
2023-04-27T06:37:04.068Z,880.00
2023-04-27T06:38:05.914Z,877.00
2023-04-27T06:39:04.072Z,872.00
2023-04-27T06:40:04.385Z,848.00
2023-04-27T06:41:04.066Z,824.00
2023-04-27T06:42:04.084Z,813.00
2023-04-27T06:43:04.053Z,824.00
2023-04-27T06:44:04.069Z,819.00
2023-04-27T06:45:04.048Z,823.00
2023-04-27T06:46:04.084Z,820.00
2023-04-27T06:47:04.022Z,824.00
2023-04-27T06:48:04.050Z,835.00
2023-04-27T06:49:04.033Z,841.00
2023-04-27T06:50:04.056Z,841.00
2023-04-27T06:51:04.047Z,845.00
2023-04-27T06:52:04.013Z,852.00
2023-04-27T06:53:04.015Z,853.00
2023-04-27T06:54:04.002Z,859.00
2023-04-27T06:55:03.984Z,870.00
2023-04-27T06:56:03.992Z,881.00
2023-04-27T06:57:03.959Z,888.00
2023-04-27T06:58:03.969Z,884.00
2023-04-27T06:59:03.946Z,875.00
2023-04-27T07:00:03.939Z,868.00
2023-04-27T07:01:03.997Z,870.00
2023-04-27T07:02:03.948Z,874.00
2023-04-27T07:03:04.068Z,882.00
2023-04-27T07:04:04.018Z,886.00
2023-04-27T07:05:03.961Z,893.00
2023-04-27T07:06:03.912Z,902.00
2023-04-27T07:07:03.899Z,953.00
2023-04-27T07:08:06.191Z,955.00
2023-04-27T07:09:10.442Z,954.00
2023-04-27T07:10:04.908Z,947.00
2023-04-27T07:11:03.886Z,948.00
2023-04-27T07:12:04.053Z,951.00
2023-04-27T07:13:03.856Z,942.00
2023-04-27T07:14:03.908Z,937.00
2023-04-27T07:15:03.861Z,933.00
2023-04-27T07:16:03.859Z,921.00
2023-04-27T07:17:03.806Z,929.00
2023-04-27T07:18:03.872Z,926.00
2023-04-27T07:19:03.837Z,928.00
2023-04-27T07:20:03.803Z,921.00
2023-04-27T07:21:03.813Z,921.00
2023-04-27T07:22:03.847Z,927.00
2023-04-27T07:23:03.894Z,931.00
2023-04-27T07:24:03.909Z,927.00
2023-04-27T07:25:03.927Z,929.00
2023-04-27T07:26:03.973Z,971.00
2023-04-27T07:27:04.041Z,973.00
2023-04-27T07:28:04.406Z,970.00
2023-04-27T07:29:11.189Z,962.00
2023-04-27T07:30:05.073Z,955.00
2023-04-27T07:31:04.439Z,964.00
2023-04-27T07:32:04.100Z,983.00
2023-04-27T07:33:04.153Z,988.00
2023-04-27T07:34:04.061Z,974.00
2023-04-27T07:35:04.075Z,884.00
2023-04-27T07:36:04.056Z,870.00
2023-04-27T07:37:04.006Z,859.00
2023-04-27T07:38:04.015Z,833.00
2023-04-27T07:39:04.007Z,830.00
2023-04-27T07:40:03.995Z,830.00
2023-04-27T07:41:04.017Z,877.00
2023-04-27T07:42:03.991Z,893.00
2023-04-27T07:43:03.994Z,906.00
2023-04-27T07:44:03.993Z,906.00
2023-04-27T07:45:04.002Z,899.00
2023-04-27T07:46:04.068Z,874.00
2023-04-27T07:47:04.085Z,885.00
2023-04-27T07:48:04.142Z,898.00
2023-04-27T07:49:04.169Z,887.00
2023-04-27T07:50:04.182Z,888.00
2023-04-27T07:51:04.167Z,897.00
2023-04-27T07:52:04.198Z,908.00
2023-04-27T07:53:04.215Z,915.00
2023-04-27T07:54:04.220Z,899.00
2023-04-27T07:55:04.282Z,888.00
2023-04-27T07:56:04.291Z,910.00
2023-04-27T07:57:04.297Z,914.00
2023-04-27T07:58:04.333Z,895.00
2023-04-27T07:59:04.325Z,891.00
2023-04-27T08:00:04.446Z,888.00
2023-04-27T08:01:04.400Z,891.00
2023-04-27T08:02:18.417Z,899.00
2023-04-27T08:03:05.577Z,924.00
2023-04-27T08:04:04.704Z,906.00
2023-04-27T08:05:04.734Z,898.00
2023-04-27T08:06:04.897Z,894.00
2023-04-27T08:07:05.118Z,890.00
2023-04-27T08:08:04.611Z,889.00
2023-04-27T08:09:04.404Z,891.00
2023-04-27T08:10:04.318Z,893.00
2023-04-27T08:11:04.319Z,892.00
2023-04-27T08:12:04.319Z,890.00
2023-04-27T08:13:04.315Z,890.00
2023-04-27T08:14:04.308Z,890.00
2023-04-27T08:15:04.312Z,892.00
2023-04-27T08:16:04.283Z,908.00
2023-04-27T08:17:04.347Z,912.00
2023-04-27T08:18:04.292Z,910.00
2023-04-27T08:19:04.272Z,903.00
2023-04-27T08:20:04.270Z,901.00
2023-04-27T08:21:04.250Z,902.00
2023-04-27T08:22:04.235Z,910.00
2023-04-27T08:23:04.235Z,907.00
2023-04-27T08:24:04.240Z,908.00
2023-04-27T08:25:04.225Z,909.00
2023-04-27T08:26:04.216Z,906.00
2023-04-27T08:27:04.221Z,909.00
2023-04-27T08:28:04.187Z,922.00
2023-04-27T08:29:15.481Z,939.00
2023-04-27T08:30:05.168Z,919.00
2023-04-27T08:31:04.187Z,899.00
2023-04-27T08:32:04.155Z,877.00
2023-04-27T08:33:04.350Z,873.00
2023-04-27T08:34:04.166Z,852.00
2023-04-27T08:35:04.133Z,846.00
2023-04-27T08:36:04.153Z,838.00
2023-04-27T08:37:04.153Z,813.00
2023-04-27T08:38:04.170Z,751.00
2023-04-27T08:39:04.101Z,765.00
2023-04-27T08:40:04.130Z,763.00
2023-04-27T08:41:18.017Z,745.00
2023-04-27T08:42:05.092Z,740.00
2023-04-27T08:43:04.119Z,673.00
2023-04-27T08:44:04.095Z,679.00
2023-04-27T08:45:04.093Z,709.00
2023-04-27T08:46:04.098Z,700.00
2023-04-27T08:47:04.047Z,698.00
2023-04-27T08:48:04.078Z,706.00
2023-04-27T08:49:04.085Z,707.00
2023-04-27T08:50:04.028Z,710.00
2023-04-27T08:51:04.004Z,713.00
2023-04-27T08:52:03.993Z,720.00
2023-04-27T08:53:04.023Z,727.00
2023-04-27T08:54:03.981Z,736.00
2023-04-27T08:55:03.999Z,743.00
2023-04-27T08:56:03.986Z,749.00
2023-04-27T08:57:03.984Z,753.00
2023-04-27T08:58:03.994Z,757.00
2023-04-27T08:59:03.999Z,760.00
2023-04-27T09:00:03.965Z,799.00
2023-04-27T09:01:03.931Z,809.00
2023-04-27T09:02:03.994Z,838.00
2023-04-27T09:03:04.140Z,856.00
2023-04-27T09:04:04.128Z,844.00
2023-04-27T09:05:04.113Z,850.00
2023-04-27T09:06:05.597Z,840.00
2023-04-27T09:07:04.144Z,844.00
2023-04-27T09:08:04.198Z,839.00
2023-04-27T09:09:04.263Z,834.00
2023-04-27T09:10:04.307Z,832.00
2023-04-27T09:11:04.348Z,834.00
2023-04-27T09:12:04.375Z,845.00
2023-04-27T09:13:04.466Z,849.00
2023-04-27T09:14:04.493Z,850.00
2023-04-27T09:15:04.529Z,855.00
2023-04-27T09:16:04.603Z,853.00
2023-04-27T09:17:04.679Z,855.00
2023-04-27T09:18:04.767Z,853.00
2023-04-27T09:19:04.768Z,852.00
2023-04-27T09:20:04.837Z,852.00
2023-04-27T09:21:04.884Z,858.00
2023-04-27T09:22:04.932Z,853.00
2023-04-27T09:23:05.005Z,849.00
2023-04-27T09:24:05.018Z,845.00
2023-04-27T09:25:05.045Z,841.00
2023-04-27T09:26:05.061Z,839.00
2023-04-27T09:27:05.203Z,847.00
2023-04-27T09:28:05.154Z,844.00
2023-04-27T09:29:05.189Z,841.00
2023-04-27T09:30:05.234Z,853.00
2023-04-27T09:31:05.219Z,864.00
2023-04-27T09:32:05.290Z,866.00
2023-04-27T09:33:05.274Z,861.00
2023-04-27T09:34:05.281Z,858.00
2023-04-27T09:35:05.418Z,857.00
2023-04-27T09:36:05.440Z,883.00
2023-04-27T09:37:05.338Z,832.00
2023-04-27T09:38:05.353Z,794.00
2023-04-27T09:39:05.340Z,779.00
2023-04-27T09:40:05.430Z,762.00
2023-04-27T09:41:05.424Z,743.00
2023-04-27T09:42:05.439Z,728.00
2023-04-27T09:43:05.492Z,717.00
2023-04-27T09:44:05.446Z,706.00
2023-04-27T09:45:05.518Z,692.00
2023-04-27T09:46:05.644Z,684.00
2023-04-27T09:47:05.592Z,666.00
2023-04-27T09:48:05.610Z,654.00
2023-04-27T09:49:05.617Z,642.00
2023-04-27T09:50:05.637Z,630.00
2023-04-27T09:51:05.704Z,623.00
2023-04-27T09:52:05.721Z,612.00
2023-04-27T09:53:05.714Z,602.00
2023-04-27T09:54:05.763Z,593.00
2023-04-27T09:55:05.837Z,589.00
2023-04-27T09:56:05.806Z,580.00
2023-04-27T09:57:05.860Z,565.00
2023-04-27T09:58:05.845Z,550.00
2023-04-27T09:59:05.897Z,542.00
2023-04-27T10:00:05.906Z,536.00
2023-04-27T10:01:05.949Z,528.00
2023-04-27T10:02:20.985Z,522.00
2023-04-27T10:03:07.021Z,516.00
2023-04-27T10:04:06.071Z,508.00
2023-04-27T10:05:05.957Z,501.00
2023-04-27T10:06:05.945Z,495.00
2023-04-27T10:07:05.912Z,494.00
2023-04-27T10:08:05.894Z,491.00
2023-04-27T10:09:05.892Z,484.00
2023-04-27T10:10:05.907Z,475.00
2023-04-27T10:11:05.888Z,466.00
2023-04-27T10:12:05.880Z,461.00
2023-04-27T10:13:05.898Z,456.00
2023-04-27T10:14:05.873Z,452.00
2023-04-27T10:15:05.864Z,450.00
2023-04-27T10:16:05.867Z,451.00
2023-04-27T10:17:05.926Z,450.00
2023-04-27T10:18:05.945Z,448.00
2023-04-27T10:19:05.829Z,449.00
2023-04-27T10:20:05.838Z,446.00
2023-04-27T10:21:05.836Z,447.00
2023-04-27T10:22:05.828Z,444.00
2023-04-27T10:23:05.814Z,444.00
2023-04-27T10:24:05.777Z,443.00
2023-04-27T10:25:05.818Z,443.00
2023-04-27T10:26:05.784Z,442.00
2023-04-27T10:27:05.790Z,442.00
2023-04-27T10:28:05.771Z,444.00
2023-04-27T10:29:05.751Z,443.00
2023-04-27T10:30:05.776Z,439.00
2023-04-27T10:31:05.911Z,440.00
2023-04-27T10:32:05.916Z,435.00
2023-04-27T10:33:06.053Z,433.00
2023-04-27T10:34:06.007Z,433.00
2023-04-27T10:35:06.104Z,434.00
2023-04-27T10:36:06.121Z,434.00
2023-04-27T10:37:06.242Z,433.00
2023-04-27T10:38:06.302Z,432.00
2023-04-27T10:39:06.376Z,433.00
2023-04-27T10:40:06.405Z,434.00
2023-04-27T10:41:06.453Z,432.00
2023-04-27T10:42:06.486Z,433.00
2023-04-27T10:43:06.575Z,433.00
2023-04-27T10:44:06.624Z,434.00
2023-04-27T10:45:06.623Z,434.00
2023-04-27T10:46:06.709Z,433.00
2023-04-27T10:47:06.714Z,433.00
2023-04-27T10:48:06.881Z,433.00
2023-04-27T10:49:06.815Z,435.00
2023-04-27T10:50:06.854Z,438.00
2023-04-27T10:51:06.882Z,438.00
2023-04-27T10:52:06.916Z,438.00
2023-04-27T10:53:06.934Z,436.00
2023-04-27T10:54:06.987Z,435.00
2023-04-27T10:55:06.986Z,435.00
2023-04-27T10:56:07.213Z,434.00
2023-04-27T10:57:07.110Z,437.00
2023-04-27T10:58:07.155Z,439.00
2023-04-27T10:59:07.182Z,437.00
2023-04-27T11:00:07.183Z,435.00
2023-04-27T11:01:07.309Z,435.00
2023-04-27T11:02:07.376Z,432.00
2023-04-27T11:03:07.418Z,432.00
2023-04-27T11:04:07.318Z,431.00
2023-04-27T11:05:07.472Z,428.00
2023-04-27T11:06:07.446Z,425.00
2023-04-27T11:07:07.407Z,424.00
2023-04-27T11:08:07.492Z,425.00
2023-04-27T11:09:07.561Z,425.00
2023-04-27T11:10:07.565Z,425.00
2023-04-27T11:11:07.546Z,426.00
2023-04-27T11:12:07.591Z,427.00
2023-04-27T11:13:07.635Z,424.00
2023-04-27T11:14:07.671Z,423.00
2023-04-27T11:15:07.642Z,422.00
2023-04-27T11:16:07.721Z,420.00
2023-04-27T11:17:07.650Z,422.00
2023-04-27T11:18:07.759Z,422.00
2023-04-27T11:19:07.705Z,424.00
2023-04-27T11:20:07.737Z,461.00
2023-04-27T11:21:08.003Z,451.00
2023-04-27T11:22:07.788Z,446.00
2023-04-27T11:23:07.850Z,389.00
2023-04-27T11:24:07.866Z,393.00
2023-04-27T11:25:07.978Z,390.00
2023-04-27T11:26:07.980Z,386.00
2023-04-27T11:27:08.031Z,382.00
2023-04-27T11:28:08.078Z,388.00
2023-04-27T11:29:08.109Z,393.00
2023-04-27T11:30:08.508Z,393.00
2023-04-27T11:31:08.299Z,400.00
2023-04-27T11:32:08.280Z,412.00
2023-04-27T11:33:08.445Z,419.00
2023-04-27T11:34:08.367Z,417.00
2023-04-27T11:35:08.429Z,414.00
2023-04-27T11:36:08.467Z,416.00
2023-04-27T11:37:17.167Z,413.00
2023-04-27T11:38:09.462Z,414.00
2023-04-27T11:39:08.548Z,413.00
2023-04-27T11:40:08.461Z,413.00
2023-04-27T11:41:08.458Z,415.00
2023-04-27T11:42:08.433Z,416.00
2023-04-27T11:43:08.440Z,418.00
2023-04-27T11:44:08.452Z,420.00
2023-04-27T11:45:08.452Z,423.00
2023-04-27T11:46:08.448Z,423.00
2023-04-27T11:47:08.550Z,422.00
2023-04-27T11:48:08.485Z,429.00
2023-04-27T11:49:08.457Z,430.00
2023-04-27T11:50:08.419Z,431.00
2023-04-27T11:51:08.383Z,433.00
2023-04-27T11:52:08.400Z,434.00
2023-04-27T11:53:08.470Z,437.00
2023-04-27T11:54:08.497Z,441.00
2023-04-27T11:55:08.580Z,449.00
2023-04-27T11:56:08.590Z,451.00
2023-04-27T11:57:08.618Z,449.00
2023-04-27T11:58:08.693Z,452.00
2023-04-27T11:59:08.746Z,460.00
2023-04-27T12:00:08.800Z,484.00
2023-04-27T12:01:09.153Z,465.00
2023-04-27T12:02:08.942Z,460.00
2023-04-27T12:03:09.202Z,460.00
2023-04-27T12:04:09.161Z,459.00
2023-04-27T12:05:09.294Z,457.00
2023-04-27T12:06:22.066Z,452.00
2023-04-27T12:07:10.143Z,454.00
2023-04-27T12:08:09.213Z,454.00
2023-04-27T12:09:09.130Z,454.00
2023-04-27T12:10:09.205Z,453.00
2023-04-27T12:11:09.097Z,454.00
2023-04-27T12:12:09.086Z,454.00
2023-04-27T12:13:09.148Z,453.00
2023-04-27T12:14:09.124Z,455.00
2023-04-27T12:15:09.153Z,455.00
2023-04-27T12:16:09.064Z,454.00
2023-04-27T12:17:09.140Z,454.00
2023-04-27T12:18:09.117Z,452.00
2023-04-27T12:19:09.145Z,452.00
2023-04-27T12:20:09.052Z,456.00
2023-04-27T12:21:09.037Z,498.00
2023-04-27T12:22:09.019Z,482.00
2023-04-27T12:23:09.028Z,471.00
2023-04-27T12:24:09.024Z,461.00
2023-04-27T12:25:09.012Z,457.00
2023-04-27T12:26:08.990Z,451.00
2023-04-27T12:27:09.012Z,443.00
2023-04-27T12:28:08.995Z,434.00
2023-04-27T12:29:08.955Z,425.00